Time;durP1;ratioP1;P1;durP2;ratioP2;P2;SDS_P1;SDS_P2;PMS_P1;PMS_P2;Temp;Humidity;BMP_temperature;BMP_pressure;BME280_temperature;BME280_humidity;BME280_pressure;Samples;Min_cycle;Max_cycle;Signal;HPM_P1;HPM_P2
2020/12/08 06:01:58;;;;;;;23.80;15.23;;;0.60;99.90;;;;;;9947528;29;20062;-90
2020/12/08 06:07:00;;;;;;;23.98;15.63;;;0.60;99.90;;;;;;9919891;29;20430;-91
2020/12/08 06:12:15;;;;;;;33.45;19.40;;;0.60;99.90;;;;;;9919491;29;20071;-90
2020/12/08 06:17:16;;;;;;;24.20;15.18;;;0.60;99.90;;;;;;9943639;29;20146;-90
2020/12/08 06:22:18;;;;;;;26.05;16.73;;;0.70;99.90;;;;;;9971092;29;20498;-90
2020/12/08 06:27:23;;;;;;;22.73;16.48;;;0.70;99.90;;;;;;9970556;29;20066;-90
2020/12/08 06:32:30;;;;;;;24.08;15.23;;;0.70;99.90;;;;;;9985309;29;20078;-90
2020/12/08 06:37:31;;;;;;;28.45;17.23;;;0.70;99.90;;;;;;9956642;29;20062;-90
2020/12/08 06:42:34;;;;;;;25.48;16.05;;;0.80;99.90;;;;;;9917092;29;20067;-90
2020/12/08 06:47:36;;;;;;;30.17;18.92;;;0.80;99.90;;;;;;9918228;29;20065;-90
2020/12/08 06:52:37;;;;;;;24.30;15.40;;;0.80;99.90;;;;;;9917600;29;20521;-90
2020/12/08 06:57:39;;;;;;;;;;;0.80;99.90;;;;;;9924596;29;20575;-90
2020/12/08 07:02:51;;;;;;;25.95;16.73;;;0.80;99.90;;;;;;9951991;29;20028;-90
2020/12/08 07:08:05;;;;;;;34.85;21.98;;;0.80;99.90;;;;;;9954140;29;20063;-90
2020/12/08 07:13:18;;;;;;;31.45;18.58;;;0.90;99.90;;;;;;9903473;29;20128;-90
2020/12/08 07:18:24;;;;;;;;;;;0.90;99.90;;;;;;9916951;29;20055;-90
2020/12/08 07:23:43;;;;;;;28.88;16.77;;;0.90;99.90;;;;;;9904050;29;19925;-90
2020/12/08 07:28:45;;;;;;;40.53;22.27;;;0.90;99.90;;;;;;9916823;29;20483;-90
2020/12/08 07:33:53;;;;;;;25.73;17.45;;;1.00;99.90;;;;;;9901570;29;20071;-91
2020/12/08 07:39:04;;;;;;;35.78;20.08;;;1.00;99.90;;;;;;9937427;29;20072;-91
2020/12/08 07:44:29;;;;;;;32.55;20.48;;;1.00;99.90;;;;;;9953321;29;20054;-90
2020/12/08 07:49:47;;;;;;;41.20;25.15;;;1.00;99.90;;;;;;9955406;29;20216;-90
2020/12/08 07:54:59;;;;;;;23.17;17.75;;;1.10;99.90;;;;;;9954286;29;20510;-91
2020/12/08 08:00:08;;;;;;;31.98;20.17;;;1.10;99.90;;;;;;9968297;29;20058;-90
2020/12/08 08:05:09;;;;;;;35.42;22.17;;;1.10;99.90;;;;;;9938298;29;20076;-90
2020/12/08 08:10:11;;;;;;;29.67;19.02;;;1.10;99.90;;;;;;9937816;29;20122;-89
2020/12/08 08:15:12;;;;;;;28.48;18.08;;;1.20;99.90;;;;;;9918936;29;20063;-90
2020/12/08 08:20:14;;;;;;;26.25;16.48;;;1.20;99.90;;;;;;9915391;29;20055;-91
2020/12/08 08:25:16;;;;;;;41.58;24.05;;;1.20;99.90;;;;;;9943286;29;20085;-92
2020/12/08 08:30:17;;;;;;;26.45;18.40;;;1.20;99.90;;;;;;9960418;29;20142;-91
2020/12/08 08:35:20;;;;;;;29.55;18.38;;;1.30;99.90;;;;;;9951032;29;20479;-91
2020/12/08 08:40:22;;;;;;;28.70;18.13;;;1.40;99.90;;;;;;9924133;29;20059;-91
2020/12/08 08:45:23;;;;;;;30.27;19.45;;;1.30;99.90;;;;;;9951729;29;20079;-91
2020/12/08 08:50:25;;;;;;;50.03;28.80;;;1.40;99.90;;;;;;9936409;29;20570;-94
2020/12/08 08:55:26;;;;;;;35.42;20.60;;;1.40;99.90;;;;;;9940953;29;20055;-92
2020/12/08 09:00:36;;;;;;;29.42;19.10;;;1.50;99.90;;;;;;9918375;29;20118;-93
2020/12/08 09:05:38;;;;;;;30.38;19.10;;;1.60;99.90;;;;;;9933277;29;20058;-93
2020/12/08 09:10:41;;;;;;;25.73;18.60;;;1.70;99.90;;;;;;9923326;29;20063;-92
2020/12/08 09:15:43;;;;;;;;;;;1.70;99.90;;;;;;9921512;29;20050;-93
2020/12/08 09:20:45;;;;;;;33.65;20.77;;;1.80;99.90;;;;;;9948770;29;19924;-93
2020/12/08 09:25:54;;;;;;;33.53;22.23;;;1.90;99.90;;;;;;9946419;29;20150;-93
2020/12/08 09:30:56;;;;;;;46.97;27.52;;;2.00;99.90;;;;;;9942535;29;20082;-93
2020/12/08 09:35:57;;;;;;;43.78;28.02;;;2.00;99.90;;;;;;9919309;29;20145;-93
2020/12/08 09:40:59;;;;;;;39.17;23.95;;;2.20;99.90;;;;;;9945635;29;20117;-93
2020/12/08 09:46:01;;;;;;;38.95;25.42;;;2.30;99.90;;;;;;9924343;29;20093;-94
2020/12/08 09:51:03;;;;;;;;;;;2.40;99.90;;;;;;9920275;29;20067;-94
2020/12/08 09:56:07;;;;;;;42.38;26.48;;;2.50;99.90;;;;;;9951333;29;19925;-94
2020/12/08 10:01:08;;;;;;;45.92;27.17;;;2.60;99.90;;;;;;9926959;29;20575;-95
2020/12/08 10:06:13;;;;;;;44.78;30.27;;;2.80;99.90;;;;;;9924432;29;20062;-95
2020/12/08 10:11:15;;;;;;;46.63;29.35;;;2.90;99.90;;;;;;9951791;29;20198;-95
2020/12/08 10:16:27;;;;;;;43.40;28.05;;;3.00;99.90;;;;;;9950367;29;20066;-95
2020/12/08 10:21:29;;;;;;;43.38;30.15;;;3.20;99.90;;;;;;9957693;29;20392;-96
2020/12/08 10:26:30;;;;;;;45.05;30.35;;;3.30;99.90;;;;;;9958092;29;20196;-94
2020/12/08 10:31:32;;;;;;;45.42;31.30;;;3.30;99.90;;;;;;9957848;29;20126;-95
2020/12/08 10:36:34;;;;;;;34.53;24.77;;;3.40;99.90;;;;;;9942929;29;20431;-94
2020/12/08 10:41:35;;;;;;;;;;;3.40;99.90;;;;;;9958012;29;20087;-94
2020/12/08 10:46:37;;;;;;;37.38;26.52;;;3.30;99.90;;;;;;9957268;29;19956;-95
2020/12/08 10:51:39;;;;;;;33.00;25.00;;;3.50;99.90;;;;;;9957219;29;20078;-94
2020/12/08 10:56:40;;;;;;;42.17;27.02;;;3.60;99.90;;;;;;9971630;29;20089;-94
2020/12/08 11:01:42;;;;;;;45.28;26.77;;;3.70;99.90;;;;;;9957350;29;20062;-95
2020/12/08 11:06:45;;;;;;;41.42;26.77;;;3.50;99.90;;;;;;9941460;29;20054;-95
2020/12/08 11:11:48;;;;;;;38.70;27.17;;;3.60;99.90;;;;;;9956628;29;20119;-95
2020/12/08 11:16:50;;;;;;;34.97;24.98;;;3.70;99.90;;;;;;9927832;29;20146;-94
2020/12/08 11:22:07;;;;;;;41.00;27.25;;;3.60;99.90;;;;;;9922355;29;20055;-94
2020/12/08 11:27:20;;;;;;;40.88;27.65;;;3.70;99.90;;;;;;9919403;29;20088;-95
2020/12/08 11:32:22;;;;;;;46.95;30.42;;;3.80;99.90;;;;;;9918059;29;20078;-94
2020/12/08 11:37:23;;;;;;;;;;;4.00;99.90;;;;;;9918002;29;20142;-94
2020/12/08 11:42:25;;;;;;;40.08;26.85;;;4.10;99.90;;;;;;9930830;29;20012;-95
2020/12/08 11:47:26;;;;;;;45.75;30.80;;;4.30;99.90;;;;;;9955386;29;20064;-96
2020/12/08 11:52:28;;;;;;;33.08;24.58;;;4.40;99.90;;;;;;9954949;29;20525;-95
2020/12/08 22:27:40;;;;;;;35.67;21.13;;;1.60;99.90;;;;;;10075163;23;20053;-90
2020/12/08 22:32:43;;;;;;;;;;;1.70;99.90;;;;;;10031028;29;20065;-91
2020/12/08 22:37:45;;;;;;;28.17;18.45;;;1.70;99.90;;;;;;10026425;29;20450;-90
2020/12/08 22:42:47;;;;;;;;;;;1.80;99.90;;;;;;9991518;29;20089;-91
2020/12/08 22:47:52;;;;;;;32.92;19.85;;;1.90;99.90;;;;;;10010097;29;19974;-90
2020/12/08 22:52:54;;;;;;;44.90;23.73;;;1.80;99.90;;;;;;10046383;29;20054;-91
2020/12/08 22:57:55;;;;;;;39.47;24.67;;;1.90;99.90;;;;;;10031100;29;20149;-88
2020/12/08 23:02:57;;;;;;;48.08;24.52;;;1.90;99.90;;;;;;10046022;29;20125;-88
2020/12/08 23:07:58;;;;;;;51.70;26.90;;;2.00;99.90;;;;;;10045448;29;20054;-89
2020/12/08 23:13:00;;;;;;;37.63;22.05;;;2.00;99.90;;;;;;10036736;29;20429;-88
2020/12/08 23:18:20;;;;;;;34.35;21.55;;;1.90;99.90;;;;;;9984635;29;20058;-89
2020/12/08 23:23:22;;;;;;;;;;;2.00;99.90;;;;;;9992379;29;20536;-88
2020/12/08 23:28:23;;;;;;;31.65;19.45;;;2.00;99.90;;;;;;10006684;29;19924;-88
2020/12/08 23:33:25;;;;;;;33.05;19.80;;;2.00;99.90;;;;;;9977290;29;20085;-88
2020/12/08 23:38:26;;;;;;;31.48;18.80;;;2.00;99.90;;;;;;9975994;29;20494;-88
2020/12/08 23:43:27;;;;;;;33.15;19.50;;;2.10;99.90;;;;;;9959988;29;20058;-88
2020/12/08 23:48:29;;;;;;;41.97;25.02;;;2.00;99.90;;;;;;9990842;29;20062;-89
2020/12/08 23:53:30;;;;;;;53.70;27.80;;;2.00;99.90;;;;;;9994472;29;20088;-88
2020/12/08 23:58:32;;;;;;;35.13;23.67;;;2.10;99.90;;;;;;10043684;29;20053;-88
